Time;durP1;ratioP1;P1;durP2;ratioP2;P2;SDS_P1;SDS_P2;PMS_P1;PMS_P2;Temp;Humidity;BMP_temperature;BMP_pressure;BME280_temperature;BME280_humidity;BME280_pressure;Samples;Min_cycle;Max_cycle;Signal;HPM_P1;HPM_P2
2022/05/03 00:00:09;;;;;;;17.60;11.13;;;;;;;11.53;48.97;98345.47;5051424;28;20425;-82
2022/05/03 00:03:02;;;;;;;13.77;9.93;;;;;;;11.50;49.24;98343.31;5048211;28;20032;-82
2022/05/03 00:06:05;;;;;;;14.65;10.25;;;;;;;11.46;49.91;98337.63;5050562;28;20377;-82
2022/05/03 00:08:45;;;;;;;15.70;10.77;;;;;;;11.45;49.29;98340.69;5050234;28;20116;-81
2022/05/03 00:11:16;;;;;;;18.92;12.32;;;;;;;11.43;49.59;98337.41;5050380;28;20024;-81
2022/05/03 00:13:53;;;;;;;17.85;11.50;;;;;;;11.41;49.46;98336.91;5050946;28;20039;-82
2022/05/03 00:16:20;;;;;;;20.17;13.43;;;;;;;11.39;49.95;98333.66;5050104;28;20090;-82
2022/05/03 00:18:46;;;;;;;30.08;19.00;;;;;;;11.36;49.74;98332.34;5050549;28;20017;-82
2022/05/03 00:21:12;;;;;;;21.58;13.75;;;;;;;11.35;49.55;98340.88;5050005;28;20036;-82
2022/05/03 00:23:37;;;;;;;20.20;11.77;;;;;;;11.31;50.10;98337.94;5050006;28;20043;-82
2022/05/03 00:26:03;;;;;;;19.13;12.40;;;;;;;11.29;50.02;98329.97;5050569;28;20453;-82
2022/05/03 00:28:29;;;;;;;17.67;11.05;;;;;;;11.26;49.73;98319.59;5050799;28;20477;-82
2022/05/03 00:30:55;;;;;;;15.48;11.75;;;;;;;11.23;50.08;98316.66;5050054;28;20033;-81
2022/05/03 00:33:22;;;;;;;16.10;11.52;;;;;;;11.19;50.25;98319.22;5051076;28;20043;-81
2022/05/03 00:35:49;;;;;;;16.00;11.68;;;;;;;11.16;49.78;98322.56;5050145;28;20493;-82
2022/05/03 00:38:14;;;;;;;16.63;11.30;;;;;;;11.11;50.77;98320.72;5050544;28;20489;-81
2022/05/03 00:40:48;;;;;;;17.75;11.90;;;;;;;11.07;49.65;98316.94;5050858;28;20032;-81
2022/05/03 00:43:52;;;;;;;16.98;12.07;;;;;;;11.04;50.61;98317.56;5049949;28;20079;-81
2022/05/03 00:46:22;;;;;;;18.23;11.95;;;;;;;11.05;50.73;98318.38;5049956;28;20059;-82
2022/05/03 00:49:15;;;;;;;20.15;12.98;;;;;;;11.01;50.38;98308.00;5050628;28;20025;-82
2022/05/03 00:52:08;;;;;;;18.67;12.75;;;;;;;11.01;51.32;98307.19;5050057;28;20036;-82
2022/05/03 00:54:45;;;;;;;20.00;13.65;;;;;;;10.98;50.71;98308.59;5051175;28;20456;-81
2022/05/03 00:57:25;;;;;;;18.85;13.63;;;;;;;10.99;50.66;98303.94;5050505;28;20064;-82
2022/05/03 01:00:10;;;;;;;22.40;14.05;;;;;;;11.01;50.85;98307.19;5050688;28;20485;-82
2022/05/03 01:02:55;;;;;;;20.63;13.55;;;;;;;11.01;50.63;98315.41;5050698;28;20477;-82
2022/05/03 01:05:26;;;;;;;20.25;14.05;;;;;;;11.04;50.80;98316.75;5050361;28;20021;-81
2022/05/03 01:08:07;;;;;;;22.77;14.85;;;;;;;11.06;50.35;98320.81;5049934;28;20037;-82
2022/05/03 01:10:37;;;;;;;19.83;13.68;;;;;;;11.06;51.33;98325.50;5049176;28;20116;-81
2022/05/03 01:13:04;;;;;;;19.70;12.40;;;;;;;11.05;51.39;98335.66;5050424;28;20369;-82
2022/05/03 01:15:44;;;;;;;20.52;13.85;;;;;;;11.05;52.07;98335.66;5048620;28;20104;-82
2022/05/03 01:18:23;;;;;;;23.92;16.52;;;;;;;11.10;51.59;98332.81;5050033;28;20036;-82
2022/05/03 01:21:17;;;;;;;26.08;18.42;;;;;;;11.19;52.41;98332.94;5050108;28;20024;-82
2022/05/03 01:23:50;;;;;;;28.48;19.08;;;;;;;11.27;51.69;98329.47;5050973;28;20088;-82
2022/05/03 01:26:39;;;;;;;26.25;18.90;;;;;;;11.32;52.86;98312.91;5047833;28;20124;-81
2022/05/03 01:29:27;;;;;;;29.20;19.35;;;;;;;11.40;52.08;98310.56;5047234;28;20550;-81
2022/05/03 01:31:57;;;;;;;27.55;18.73;;;;;;;11.41;52.10;98307.50;5050119;28;20046;-81
2022/05/03 01:34:24;;;;;;;29.48;19.33;;;;;;;11.40;52.73;98307.81;5050141;28;20064;-80
2022/05/03 01:36:59;;;;;;;28.17;17.90;;;;;;;11.35;52.62;98307.91;5050302;28;20017;-80
2022/05/03 01:40:11;;;;;;;26.55;18.00;;;;;;;11.30;52.43;98315.13;5049834;28;20021;-80
2022/05/03 01:42:51;;;;;;;27.58;18.08;;;;;;;11.25;52.89;98311.69;5008666;28;20029;-81
2022/05/03 01:45:49;;;;;;;34.92;20.95;;;;;;;11.22;52.97;98317.78;5007296;28;21314;-81
2022/05/03 01:50:18;;;;;;;26.48;18.20;;;;;;;11.13;53.30;98317.69;5059151;28;20129;-80
2022/05/03 01:51:24;;;;;;;27.27;18.45;;;;;;;11.02;53.27;98314.28;5047545;28;20047;-80
2022/05/03 01:54:03;;;;;;;24.35;18.55;;;;;;;11.00;53.72;98317.34;5049073;28;20033;-80
2022/05/03 01:56:52;;;;;;;24.13;18.25;;;;;;;10.96;53.72;98323.75;5047388;28;20071;-80
2022/05/03 01:59:44;;;;;;;25.40;18.33;;;;;;;10.94;53.53;98326.78;5049204;28;20024;-80
2022/05/03 02:02:25;;;;;;;34.40;21.35;;;;;;;10.93;53.93;98329.84;5046107;28;20537;-81
2022/05/03 02:05:06;;;;;;;30.50;21.08;;;;;;;10.91;54.57;98332.09;5048997;28;20052;-80
2022/05/03 02:07:59;;;;;;;27.08;19.92;;;;;;;10.89;54.36;98326.88;5048714;28;20091;-80
2022/05/03 02:10:50;;;;;;;25.15;18.42;;;;;;;10.89;54.76;98318.66;5046563;28;20025;-81
2022/05/03 02:13:22;;;;;;;28.60;20.02;;;;;;;10.90;55.72;98328.50;5046569;28;20025;-80
2022/05/03 02:15:50;;;;;;;31.13;21.63;;;;;;;10.91;55.76;98332.88;5048290;28;20032;-80
2022/05/03 02:18:30;;;;;;;27.92;21.02;;;;;;;10.88;55.56;98317.03;5049362;28;20060;-80
2022/05/03 02:21:25;;;;;;;30.23;20.73;;;;;;;10.86;55.63;98308.28;5049972;28;20064;-80
2022/05/03 02:24:20;;;;;;;27.80;20.67;;;;;;;10.80;56.04;98315.78;5048495;28;20029;-81
2022/05/03 02:27:09;;;;;;;27.40;19.88;;;;;;;10.80;55.89;98304.03;5048378;28;20485;-81
2022/05/03 02:29:46;;;;;;;29.65;20.02;;;;;;;10.84;55.46;98307.75;5043621;28;20589;-81
2022/05/03 02:32:15;;;;;;;29.73;20.33;;;;;;;10.87;56.47;98312.66;5048577;28;20033;-80
2022/05/03 02:34:53;;;;;;;37.40;24.77;;;;;;;10.86;56.26;98311.84;5045284;28;20029;-81
2022/05/03 02:37:22;;;;;;;35.50;24.55;;;;;;;10.79;56.45;98305.13;5049110;28;20028;-81
2022/05/03 02:39:58;;;;;;;34.03;23.65;;;;;;;10.75;56.22;98301.38;5048898;28;20031;-81
2022/05/03 02:42:25;;;;;;;32.88;22.90;;;;;;;10.72;56.90;98309.06;5047635;28;20029;-81
2022/05/03 02:44:54;;;;;;;32.40;21.48;;;;;;;10.71;57.15;98304.69;5049444;28;20033;-81
2022/05/03 02:47:34;;;;;;;33.05;21.88;;;;;;;10.66;56.57;98301.22;5049051;28;20060;-81
2022/05/03 02:50:06;;;;;;;30.15;20.73;;;;;;;10.63;56.53;98304.56;5048405;28;20032;-81
2022/05/03 02:52:31;;;;;;;30.85;20.63;;;;;;;10.62;57.32;98309.25;5049365;28;20033;-81
2022/05/03 02:55:03;;;;;;;31.08;20.88;;;;;;;10.61;57.79;98306.78;5048611;28;20035;-80
2022/05/03 02:57:43;;;;;;;32.08;21.92;;;;;;;10.61;57.79;98304.88;5048557;28;20021;-81
2022/05/03 03:03:31;;;;;;;29.92;21.48;;;;;;;10.52;57.61;98329.44;5048575;28;20047;-80
2022/05/03 03:06:01;;;;;;;29.10;20.45;;;;;;;10.37;58.26;98316.75;5047054;28;20029;-81
2022/05/03 03:08:35;;;;;;;30.92;21.05;;;;;;;10.33;57.83;98331.34;5048737;28;20083;-81
2022/05/03 03:11:05;;;;;;;31.38;21.63;;;;;;;10.22;58.62;98330.69;5046740;28;20053;-80
2022/05/03 03:13:58;;;;;;;31.70;21.10;;;;;;;10.08;58.64;98323.19;5049208;28;20028;-81
2022/05/03 03:16:35;;;;;;;31.13;21.40;;;;;;;10.03;58.78;98323.25;5047851;28;20037;-81
2022/05/03 03:19:41;;;;;;;31.50;22.00;;;;;;;9.97;58.48;98316.25;5049029;28;20028;-81
2022/05/03 03:22:12;;;;;;;30.20;22.23;;;;;;;10.01;59.02;98321.94;5008020;28;20026;-80
2022/05/03 03:24:39;;;;;;;33.63;22.73;;;;;;;10.01;58.90;98314.53;5007617;28;20616;-81
2022/05/03 03:27:09;;;;;;;37.47;25.60;;;;;;;10.03;58.64;98311.50;5027374;28;20565;-80
2022/05/03 03:29:38;;;;;;;34.45;24.17;;;;;;;10.05;59.12;98312.03;5049481;28;20111;-81
2022/05/03 03:32:06;;;;;;;34.47;25.15;;;;;;;10.02;59.04;98312.63;5047507;28;20037;-80
2022/05/03 03:34:32;;;;;;;43.80;28.35;;;;;;;10.02;59.20;98307.94;5049987;28;20516;-81
2022/05/03 03:37:02;;;;;;;43.08;28.63;;;;;;;10.07;58.84;98307.06;5049686;28;20031;-81
2022/05/03 03:39:31;;;;;;;44.08;29.65;;;;;;;10.07;59.50;98313.34;5046300;28;20032;-81
2022/05/03 03:42:07;;;;;;;41.17;28.33;;;;;;;10.09;58.92;98307.59;5050306;28;20021;-81
2022/05/03 03:44:33;;;;;;;40.08;26.50;;;;;;;10.13;59.11;98317.66;5049842;28;20036;-81
2022/05/03 03:47:00;;;;;;;41.20;27.15;;;;;;;10.20;59.13;98327.44;5048980;28;20120;-81
2022/05/03 03:49:26;;;;;;;40.30;25.98;;;;;;;10.23;59.26;98318.59;5049000;28;20044;-81
2022/05/03 03:51:52;;;;;;;37.55;26.42;;;;;;;10.23;60.01;98321.34;5048642;28;20512;-81
2022/05/03 03:54:19;;;;;;;36.92;25.95;;;;;;;10.25;59.62;98327.34;5044899;28;20041;-81
2022/05/03 03:56:45;;;;;;;37.42;25.25;;;;;;;10.26;60.00;98320.75;5049244;28;20029;-81
2022/05/03 03:59:13;;;;;;;39.58;26.25;;;;;;;10.25;59.68;98325.41;5049855;28;20025;-81
2022/05/03 04:01:40;;;;;;;39.10;26.63;;;;;;;10.22;59.80;98311.50;5049984;28;20382;-81
2022/05/03 04:04:07;;;;;;;44.78;29.83;;;;;;;10.23;59.86;98319.41;5046799;28;20029;-80
2022/05/03 04:06:33;;;;;;;46.53;30.90;;;;;;;10.24;59.46;98312.81;5049433;28;20059;-82
2022/05/03 04:08:59;;;;;;;51.90;32.60;;;;;;;10.26;60.12;98307.06;5048793;28;20432;-81
2022/05/03 04:11:24;;;;;;;55.50;33.92;;;;;;;10.32;60.23;98314.09;5049642;28;20029;-82
2022/05/03 04:13:50;;;;;;;51.55;32.72;;;;;;;10.40;59.83;98310.69;5051170;28;20483;-81
2022/05/03 04:16:15;;;;;;;49.90;32.95;;;;;;;10.42;60.65;98308.44;5052913;28;20040;-81
2022/05/03 04:18:44;;;;;;;53.05;33.47;;;;;;;10.46;59.78;98318.81;5052970;28;20075;-81
2022/05/03 04:21:17;;;;;;;53.33;33.55;;;;;;;10.50;60.75;98311.63;5052359;28;20481;-81
2022/05/03 04:23:45;;;;;;;54.08;34.72;;;;;;;10.56;59.99;98313.19;5048776;28;20021;-81
2022/05/03 04:26:11;;;;;;;46.78;31.70;;;;;;;10.59;60.21;98309.03;5050924;28;20025;-81
2022/05/03 04:28:37;;;;;;;59.40;37.00;;;;;;;10.57;60.60;98312.06;5053241;28;20113;-81
2022/05/03 04:31:03;;;;;;;56.75;37.03;;;;;;;10.54;60.82;98315.41;5053256;28;20389;-80
2022/05/03 04:33:29;;;;;;;49.20;33.45;;;;;;;10.55;60.67;98322.53;5052132;28;20031;-80
2022/05/03 04:35:54;;;;;;;56.75;34.70;;;;;;;10.60;59.91;98313.41;5051854;28;20104;-81
2022/05/03 04:38:19;;;;;;;55.45;37.47;;;;;;;10.63;60.72;98326.50;5051666;28;20266;-80
2022/05/03 04:40:45;;;;;;;54.55;36.88;;;;;;;10.62;60.62;98322.13;5050227;28;20462;-81
2022/05/03 04:43:11;;;;;;;54.60;36.55;;;;;;;10.67;61.23;98325.63;5052329;28;20538;-80
2022/05/03 04:45:36;;;;;;;55.03;35.00;;;;;;;10.76;60.65;98322.19;5052670;28;20547;-81
2022/05/03 04:48:02;;;;;;;54.78;36.70;;;;;;;10.78;61.05;98319.97;5050999;28;20025;-80
2022/05/03 04:50:27;;;;;;;55.88;35.58;;;;;;;10.81;60.56;98322.91;5053101;28;20021;-81
2022/05/03 04:52:53;;;;;;;55.67;37.45;;;;;;;10.91;60.66;98335.63;5051392;28;20119;-81
2022/05/03 04:55:18;;;;;;;53.15;36.13;;;;;;;11.00;61.08;98336.56;5051789;28;20028;-81
2022/05/03 04:57:44;;;;;;;111.68;59.13;;;;;;;11.13;60.69;98339.63;5052423;28;20045;-81
2022/05/03 05:00:09;;;;;;;102.05;54.17;;;;;;;11.25;60.77;98342.69;5052221;28;20021;-81
2022/05/03 05:02:36;;;;;;;59.40;36.67;;;;;;;11.34;60.47;98353.81;5051868;28;20435;-81
2022/05/03 05:05:01;;;;;;;48.85;31.52;;;;;;;11.44;60.56;98353.56;5048648;28;20029;-81
2022/05/03 05:07:27;;;;;;;44.15;29.83;;;;;;;11.51;60.47;98344.97;5049659;28;20087;-82
2022/05/03 05:12:36;;;;;;;61.60;34.13;;;;;;;11.81;60.44;98342.69;5050001;28;20095;-81
2022/05/03 05:15:02;;;;;;;48.65;30.50;;;;;;;11.96;60.53;98349.00;5052201;28;20792;-82
2022/05/03 05:17:27;;;;;;;42.15;27.75;;;;;;;12.09;60.48;98347.34;5052290;28;20107;-81
2022/05/03 05:19:52;;;;;;;41.38;27.83;;;;;;;12.21;60.30;98351.19;5052564;28;20075;-81
2022/05/03 05:22:18;;;;;;;42.85;29.17;;;;;;;12.33;59.75;98350.63;5051614;28;20087;-81
2022/05/03 05:24:43;;;;;;;47.03;30.17;;;;;;;12.45;60.07;98352.84;5050953;28;20112;-82
2022/05/03 05:27:09;;;;;;;41.50;28.45;;;;;;;12.50;60.02;98357.41;5050160;28;20021;-81
2022/05/03 05:29:34;;;;;;;40.63;27.98;;;;;;;12.59;59.90;98365.72;5047778;28;20041;-82
2022/05/03 05:32:00;;;;;;;38.35;26.23;;;;;;;12.61;59.50;98369.81;5052096;28;20035;-82
2022/05/03 05:34:25;;;;;;;40.58;29.17;;;;;;;12.61;59.56;98358.81;5049610;28;20096;-82
2022/05/03 05:36:50;;;;;;;42.03;29.10;;;;;;;12.62;58.94;98357.69;5049689;28;20543;-82
2022/05/03 05:39:16;;;;;;;44.63;30.15;;;;;;;12.66;59.38;98353.16;5051943;28;20025;-82
2022/05/03 05:41:41;;;;;;;37.92;27.98;;;;;;;12.66;59.47;98350.41;5051754;28;20033;-82
2022/05/03 05:44:07;;;;;;;38.40;27.10;;;;;;;12.61;60.04;98361.56;5050932;28;20033;-82
2022/05/03 05:46:32;;;;;;;39.15;27.88;;;;;;;12.60;59.83;98348.09;5048957;28;20045;-81
2022/05/03 05:48:58;;;;;;;39.97;27.40;;;;;;;12.64;59.52;98357.34;5051739;28;20405;-81
2022/05/03 05:51:23;;;;;;;48.20;32.13;;;;;;;12.70;59.73;98360.78;5051087;28;20021;-82
2022/05/03 05:53:48;;;;;;;36.67;27.38;;;;;;;12.73;59.81;98369.25;5050279;28;20040;-81
2022/05/03 05:56:14;;;;;;;38.17;26.08;;;;;;;12.73;60.61;98357.41;5049883;28;20025;-81
2022/05/03 05:58:39;;;;;;;35.25;25.42;;;;;;;12.66;59.66;98355.09;5050232;28;20112;-82
2022/05/03 06:01:05;;;;;;;38.85;25.80;;;;;;;12.59;59.85;98357.47;5049914;28;20515;-82
2022/05/03 06:03:32;;;;;;;32.42;24.90;;;;;;;12.59;59.43;98360.22;5051109;28;20028;-82
2022/05/03 06:05:59;;;;;;;36.30;25.15;;;;;;;12.61;59.54;98366.22;5047644;28;20052;-82
2022/05/03 06:08:25;;;;;;;32.85;24.50;;;;;;;12.59;59.90;98377.56;5051090;28;20025;-81
2022/05/03 06:10:51;;;;;;;36.65;26.17;;;;;;;12.61;60.36;98374.50;5049971;28;20032;-82
2022/05/03 06:13:17;;;;;;;35.95;24.73;;;;;;;12.56;59.79;98369.09;5051293;28;20037;-82
2022/05/03 06:15:43;;;;;;;33.75;25.70;;;;;;;12.51;60.21;98373.59;5051004;28;20159;-81
2022/05/03 06:18:09;;;;;;;32.78;24.63;;;;;;;12.49;60.07;98370.34;5049366;28;20112;-81
2022/05/03 06:20:36;;;;;;;32.72;22.83;;;;;;;12.50;60.08;98371.16;5050270;28;20107;-81
2022/05/03 06:23:02;;;;;;;37.60;25.23;;;;;;;12.54;59.81;98372.19;5050858;28;20021;-81
2022/05/03 06:25:28;;;;;;;33.15;23.75;;;;;;;12.58;60.30;98377.88;5050714;28;20043;-81
2022/05/03 06:27:53;;;;;;;31.33;23.60;;;;;;;12.64;60.21;98382.91;5048297;28;20021;-82
2022/05/03 06:30:19;;;;;;;31.50;23.20;;;;;;;12.71;60.00;98381.69;5049399;28;20036;-81
2022/05/03 06:32:45;;;;;;;32.63;23.88;;;;;;;12.73;59.67;98377.50;5050411;28;20074;-81
2022/05/03 06:35:12;;;;;;;35.53;25.17;;;;;;;12.72;59.93;98378.63;5050597;28;20013;-81
2022/05/03 06:37:39;;;;;;;41.13;26.13;;;;;;;12.75;59.62;98378.00;5049598;28;20596;-82
2022/05/03 06:40:09;;;;;;;35.60;24.73;;;;;;;12.88;59.44;98381.81;5050885;28;20034;-81
2022/05/03 06:42:37;;;;;;;34.53;23.80;;;;;;;12.98;59.35;98379.94;5050147;28;20039;-82
2022/05/03 06:45:03;;;;;;;34.70;24.48;;;;;;;13.05;59.19;98383.88;5050473;28;20040;-82
2022/05/03 06:47:29;;;;;;;35.63;24.33;;;;;;;13.15;59.17;98384.72;5050746;28;20070;-82
2022/05/03 06:49:55;;;;;;;33.40;25.15;;;;;;;13.26;59.65;98375.06;5049077;28;20025;-81
2022/05/03 06:52:20;;;;;;;31.83;24.23;;;;;;;13.36;58.97;98376.75;5048030;28;20498;-81
2022/05/03 06:54:46;;;;;;;35.65;24.63;;;;;;;13.43;58.87;98368.88;5051121;28;20100;-81
2022/05/03 06:57:11;;;;;;;32.65;24.38;;;;;;;13.51;58.82;98370.03;5048401;28;20239;-82
2022/05/03 06:59:36;;;;;;;38.28;29.13;;;;;;;13.62;58.80;98373.31;5050781;28;20472;-81
2022/05/03 07:02:02;;;;;;;31.05;24.40;;;;;;;13.73;58.77;98363.63;5046841;28;20538;-81
2022/05/03 07:04:27;;;;;;;35.28;25.60;;;;;;;13.91;58.58;98360.91;5049504;28;20474;-81
2022/05/03 07:06:53;;;;;;;34.42;24.42;;;;;;;14.03;58.25;98366.63;5049918;28;20025;-81
2022/05/03 07:09:18;;;;;;;34.53;24.77;;;;;;;14.16;58.18;98373.13;5049370;28;20025;-81
2022/05/03 07:11:44;;;;;;;33.35;24.15;;;;;;;14.30;57.96;98370.22;5050579;28;20583;-81
2022/05/03 07:14:09;;;;;;;34.92;24.90;;;;;;;14.44;57.65;98368.13;5049848;28;20021;-81
2022/05/03 07:16:35;;;;;;;35.47;24.98;;;;;;;14.56;57.23;98363.91;5049774;28;20473;-81
2022/05/03 07:24:28;;;;;;;35.72;23.58;;;;;;;14.83;56.45;98360.03;5048675;28;20460;-81
2022/05/03 07:26:53;;;;;;;34.28;25.38;;;;;;;14.92;56.17;98361.94;5050172;28;20104;-82
2022/05/03 07:29:18;;;;;;;35.78;26.13;;;;;;;15.05;56.77;98368.44;5049996;28;20031;-81
2022/05/03 07:31:44;;;;;;;32.13;23.83;;;;;;;15.17;56.94;98363.84;5048113;28;20025;-81
2022/05/03 07:34:09;;;;;;;34.50;24.75;;;;;;;15.30;56.31;98370.31;5048026;28;20035;-82
2022/05/03 07:36:35;;;;;;;32.72;24.35;;;;;;;15.38;56.55;98360.34;5049192;28;20032;-81
2022/05/03 07:39:01;;;;;;;33.80;24.40;;;;;;;15.51;56.35;98364.03;5050186;28;20033;-81
2022/05/03 07:41:26;;;;;;;29.65;23.20;;;;;;;15.63;55.83;98369.69;5048285;28;20036;-81
2022/05/03 07:43:52;;;;;;;32.95;22.92;;;;;;;15.74;55.36;98367.34;5049944;28;20425;-81
2022/05/03 07:46:17;;;;;;;32.30;21.92;;;;;;;15.86;55.01;98371.38;5046653;28;20045;-81
2022/05/03 07:48:42;;;;;;;31.83;21.80;;;;;;;15.98;54.41;98374.25;5051565;28;20484;-81
2022/05/03 07:51:11;;;;;;;28.48;21.08;;;;;;;16.12;54.06;98379.53;5051637;28;20059;-81
2022/05/03 07:53:37;;;;;;;23.83;16.03;;;;;;;16.30;53.48;98371.94;5052671;28;20053;-81
2022/05/03 07:56:03;;;;;;;19.67;12.85;;;;;;;16.57;52.93;98371.75;5048250;28;20071;-81
2022/05/03 07:58:28;;;;;;;19.65;13.25;;;;;;;16.83;49.34;98374.28;5051508;28;20037;-82
2022/05/03 08:00:54;;;;;;;18.40;13.15;;;;;;;17.02;48.46;98378.53;5051898;28;20186;-79
2022/05/03 08:03:20;;;;;;;22.00;13.20;;;;;;;17.20;47.14;98371.66;5052886;28;20035;-81
2022/05/03 08:05:45;;;;;;;17.80;13.10;;;;;;;17.33;47.46;98375.25;5053687;28;20104;-81
2022/05/03 08:08:10;;;;;;;19.55;13.57;;;;;;;17.40;47.68;98371.91;5053054;28;20116;-81
2022/05/03 08:10:36;;;;;;;20.83;11.85;;;;;;;17.40;46.96;98371.91;5053662;28;20059;-81
2022/05/03 08:13:02;;;;;;;15.98;11.45;;;;;;;17.36;46.83;98370.97;5052837;28;20024;-81
2022/05/03 08:15:27;;;;;;;15.60;11.88;;;;;;;17.34;46.22;98373.28;5053051;28;20115;-81
2022/05/03 08:17:53;;;;;;;15.60;10.80;;;;;;;17.33;45.37;98380.81;5051733;28;20489;-78
2022/05/03 08:20:18;;;;;;;16.10;11.82;;;;;;;17.32;45.11;98381.16;5053161;28;20033;-78
2022/05/03 08:22:44;;;;;;;15.80;11.32;;;;;;;17.36;44.99;98380.13;5053504;28;20024;-79
2022/05/03 08:25:10;;;;;;;16.50;10.35;;;;;;;17.38;45.25;98377.81;5051486;28;20118;-79
2022/05/03 08:27:38;;;;;;;21.00;14.07;;;;;;;17.44;44.01;98372.06;5048616;28;20024;-78
2022/05/03 08:30:05;;;;;;;22.08;15.73;;;;;;;17.51;45.26;98372.28;5051811;28;20043;-78
2022/05/03 08:32:30;;;;;;;24.05;16.17;;;;;;;17.62;45.25;98369.88;5052329;28;20026;-79
2022/05/03 08:34:56;;;;;;;21.70;16.17;;;;;;;17.77;45.87;98377.50;5053138;28;20481;-79
2022/05/03 08:42:50;;;;;;;15.80;10.57;;;;;;;18.16;44.30;98374.38;5053267;28;20432;-78
2022/05/03 08:45:15;;;;;;;17.48;11.40;;;;;;;18.27;42.36;98383.88;5051049;28;20037;-78
2022/05/03 08:47:41;;;;;;;15.40;11.57;;;;;;;18.43;43.28;98386.72;5050532;28;20029;-79
2022/05/03 08:50:07;;;;;;;20.92;16.20;;;;;;;18.68;42.63;98383.84;5052681;28;20029;-78
2022/05/03 08:52:41;;;;;;;20.90;15.57;;;;;;;18.91;43.23;98386.09;5050672;28;20028;-78
2022/05/03 08:55:06;;;;;;;18.73;14.75;;;;;;;19.10;41.46;98387.44;5052770;28;20021;-78
2022/05/03 08:57:32;;;;;;;18.92;14.30;;;;;;;19.22;42.46;98390.16;5052248;28;20146;-78
2022/05/03 08:59:58;;;;;;;16.77;13.75;;;;;;;19.33;41.91;98385.69;5046687;28;20033;-78
2022/05/03 09:02:24;;;;;;;17.75;13.13;;;;;;;19.41;40.62;98386.69;5048903;28;20465;-78
2022/05/03 09:04:49;;;;;;;18.67;14.02;;;;;;;19.51;40.32;98378.97;5051103;28;20033;-77
2022/05/03 09:07:27;;;;;;;14.98;12.85;;;;;;;19.61;39.99;98382.03;5050556;28;20090;-78
2022/05/03 09:09:54;;;;;;;16.70;11.77;;;;;;;19.68;39.89;98383.38;5051832;28;20115;-77
2022/05/03 09:12:26;;;;;;;17.83;12.18;;;;;;;19.72;38.55;98381.50;5047899;28;20510;-77
2022/05/03 09:14:54;;;;;;;18.05;12.13;;;;;;;19.75;38.72;98383.56;5046735;28;20064;-73
2022/05/03 09:17:35;;;;;;;15.02;12.30;;;;;;;19.79;39.19;98376.91;5049284;28;20035;-73
2022/05/03 09:23:46;;;;;;;16.17;12.50;;;;;;;19.89;39.45;98377.56;5053052;28;20033;-74
2022/05/03 09:25:34;;;;;;;14.18;10.75;;;;;;;20.15;39.77;98373.38;5054997;28;20098;-73
2022/05/03 09:28:06;;;;;;;14.68;10.30;;;;;;;20.23;39.78;98367.59;5051667;28;20036;-73
2022/05/03 09:30:32;;;;;;;13.93;9.90;;;;;;;20.31;39.23;98371.38;5051530;28;20151;-72
2022/05/03 09:32:57;;;;;;;14.73;10.73;;;;;;;20.37;38.38;98369.09;5049781;28;20111;-74
2022/05/03 09:35:32;;;;;;;13.50;11.32;;;;;;;20.46;38.85;98363.31;5051524;28;20048;-74
2022/05/03 09:37:57;;;;;;;14.57;10.35;;;;;;;20.52;38.87;98365.47;5049086;28;20036;-73
2022/05/03 09:40:25;;;;;;;15.55;10.50;;;;;;;20.60;37.99;98363.63;5050206;28;20033;-74
2022/05/03 09:42:54;;;;;;;16.30;11.60;;;;;;;20.62;38.57;98368.81;5050435;28;20022;-73
2022/05/03 09:45:24;;;;;;;15.80;11.65;;;;;;;20.59;37.86;98364.78;5050351;28;20045;-73
2022/05/03 09:47:51;;;;;;;16.38;11.35;;;;;;;20.59;37.70;98370.38;5049086;28;20028;-74
2022/05/03 09:50:29;;;;;;;17.52;12.63;;;;;;;20.65;38.11;98368.09;5049948;28;20025;-73
2022/05/03 09:53:07;;;;;;;15.50;11.70;;;;;;;20.77;38.60;98370.75;5045832;28;20024;-73
2022/05/03 09:55:36;;;;;;;16.60;11.70;;;;;;;20.87;37.87;98363.00;5050962;28;20036;-74
2022/05/03 09:58:06;;;;;;;13.73;11.70;;;;;;;20.96;39.05;98361.59;5050172;28;20055;-73
2022/05/03 10:00:34;;;;;;;15.98;11.32;;;;;;;21.11;39.16;98354.28;5049508;28;20523;-73
2022/05/03 10:03:01;;;;;;;14.88;11.80;;;;;;;21.23;39.26;98358.09;5050334;28;20033;-74
2022/05/03 10:05:28;;;;;;;56.58;32.03;;;;;;;21.17;38.52;98354.81;5049945;28;20036;-71
2022/05/03 10:07:54;;;;;;;19.42;14.05;;;;;;;21.08;38.67;98362.59;5048662;28;20032;-72
2022/05/03 10:10:21;;;;;;;14.80;11.32;;;;;;;20.95;37.17;98362.75;5049716;28;20021;-73
2022/05/03 10:12:52;;;;;;;13.25;10.48;;;;;;;20.82;37.52;98359.31;5049667;28;20481;-73
2022/05/03 10:21:32;;;;;;;15.77;11.57;;;;;;;20.38;36.83;98360.34;5044252;28;20976;-73
2022/05/03 10:24:09;;;;;;;14.85;10.38;;;;;;;20.27;36.92;98359.34;5048168;28;20024;-73
2022/05/03 10:27:01;;;;;;;14.60;10.23;;;;;;;20.22;37.65;98362.41;5041602;28;20021;-73
2022/05/03 10:29:28;;;;;;;16.30;9.70;;;;;;;20.25;37.60;98363.63;5053917;28;20094;-74
2022/05/03 10:32:02;;;;;;;16.42;10.32;;;;;;;20.28;37.65;98357.34;5045502;28;20425;-76
2022/05/03 10:34:40;;;;;;;12.32;9.82;;;;;;;20.36;38.00;98356.34;5048404;28;20481;-77
2022/05/03 10:37:07;;;;;;;13.98;9.73;;;;;;;20.49;37.93;98357.81;5048315;28;20488;-76
2022/05/03 10:39:32;;;;;;;22.05;10.57;;;;;;;20.69;37.65;98360.59;5050185;28;20447;-79
2022/05/03 10:42:10;;;;;;;15.35;9.98;;;;;;;20.78;37.35;98368.78;5051269;28;20025;-78
2022/05/03 10:44:53;;;;;;;14.57;10.93;;;;;;;20.92;37.44;98363.50;5048740;28;20033;-78
2022/05/03 10:47:21;;;;;;;12.88;9.90;;;;;;;20.99;36.21;98353.66;5047809;28;20119;-77
2022/05/03 10:50:12;;;;;;;13.85;9.90;;;;;;;20.89;37.68;98355.06;5053887;28;20032;-77
2022/05/03 10:52:42;;;;;;;14.32;10.55;;;;;;;20.84;36.77;98349.78;5045163;28;20505;-79
2022/05/03 10:55:09;;;;;;;12.38;10.07;;;;;;;20.79;37.07;98350.88;5049566;28;20469;-78
2022/05/03 10:58:12;;;;;;;12.52;10.00;;;;;;;20.67;36.07;98343.44;5045506;28;20135;-76
2022/05/03 11:01:07;;;;;;;13.07;10.88;;;;;;;20.57;36.52;98344.06;5046049;28;20031;-77
2022/05/03 11:03:33;;;;;;;13.88;11.10;;;;;;;20.52;36.16;98348.75;5048052;28;20033;-77
2022/05/03 11:06:18;;;;;;;12.77;10.50;;;;;;;20.55;36.66;98349.97;5048362;28;20060;-76
2022/05/03 11:09:08;;;;;;;12.35;9.75;;;;;;;20.64;36.79;98342.22;5047185;28;20029;-76
2022/05/03 11:11:40;;;;;;;16.92;11.20;;;;;;;20.79;37.23;98337.75;5046772;28;20033;-76
2022/05/03 11:14:11;;;;;;;11.05;8.90;;;;;;;20.96;36.75;98344.06;5048833;28;20108;-76
2022/05/03 11:16:37;;;;;;;12.00;9.20;;;;;;;21.18;36.02;98336.09;5047398;28;20024;-79
2022/05/03 11:19:12;;;;;;;12.73;8.93;;;;;;;21.36;36.12;98328.84;5048846;28;20087;-77
2022/05/03 11:21:38;;;;;;;11.80;8.80;;;;;;;21.42;36.15;98332.13;5048888;28;20028;-77
2022/05/03 11:24:05;;;;;;;14.75;11.57;;;;;;;21.39;35.42;98327.28;5046560;28;20028;-77
2022/05/03 11:26:31;;;;;;;11.40;9.95;;;;;;;21.39;35.27;98332.88;5047598;28;20021;-76
2022/05/03 11:28:58;;;;;;;12.07;9.75;;;;;;;21.38;34.69;98332.06;5049295;28;20056;-77
2022/05/03 11:31:26;;;;;;;12.93;10.55;;;;;;;21.31;35.16;98325.53;5049280;28;20032;-77
2022/05/03 11:33:51;;;;;;;13.02;8.15;;;;;;;21.29;35.16;98328.72;5049511;28;20025;-76
2022/05/03 11:36:17;;;;;;;9.95;8.85;;;;;;;21.23;34.90;98335.78;5048774;28;20105;-76
2022/05/03 11:38:43;;;;;;;13.75;9.10;;;;;;;21.24;34.80;98340.19;5049380;28;20021;-75
2022/05/03 11:41:09;;;;;;;9.52;8.57;;;;;;;21.30;34.56;98332.31;5049214;28;20462;-75
2022/05/03 11:43:35;;;;;;;12.18;9.63;;;;;;;21.35;33.89;98321.66;5049514;28;20548;-75
2022/05/03 11:46:00;;;;;;;14.77;10.25;;;;;;;21.50;34.50;98327.47;5049217;28;20133;-75
2022/05/03 11:48:27;;;;;;;12.45;10.52;;;;;;;21.83;35.66;98329.63;5047347;28;20037;-76
2022/05/03 11:56:26;;;;;;;13.85;10.93;;;;;;;22.59;34.51;98325.13;5048766;28;20645;-75
2022/05/03 11:58:51;;;;;;;10.02;8.45;;;;;;;22.44;33.72;98318.53;5049349;28;20036;-76
2022/05/03 12:01:17;;;;;;;12.25;8.48;;;;;;;22.30;32.90;98318.34;5049166;28;20025;-77
2022/05/03 12:03:51;;;;;;;13.15;8.50;;;;;;;22.08;32.88;98320.03;5049267;28;20381;-77